createdAt,value
2022-07-25T00:00:32.346Z,978.50
2022-07-25T00:01:32.472Z,978.49
2022-07-25T00:02:32.192Z,978.49
2022-07-25T00:03:32.124Z,978.49
2022-07-25T00:04:32.105Z,978.50
2022-07-25T00:05:37.354Z,978.48
2022-07-25T00:06:31.906Z,978.47
2022-07-25T00:07:31.835Z,978.47
2022-07-25T00:08:31.754Z,978.42
2022-07-25T00:09:31.685Z,978.43
2022-07-25T00:10:31.608Z,978.44
2022-07-25T00:11:31.539Z,978.40
2022-07-25T00:12:31.466Z,978.43
2022-07-25T00:13:31.389Z,978.41
2022-07-25T00:14:31.313Z,978.41
2022-07-25T00:15:31.246Z,978.34
2022-07-25T00:16:31.229Z,978.36
2022-07-25T00:17:31.097Z,978.36
2022-07-25T00:18:31.022Z,978.38
2022-07-25T00:19:30.951Z,978.38
2022-07-25T00:20:30.879Z,978.40
2022-07-25T00:21:30.810Z,978.40
2022-07-25T00:22:30.730Z,978.38
2022-07-25T00:23:30.665Z,978.36
2022-07-25T00:24:30.584Z,978.36
2022-07-25T00:25:30.522Z,978.41
2022-07-25T00:26:30.437Z,978.37
2022-07-25T00:27:30.369Z,978.40
2022-07-25T00:28:30.289Z,978.38
2022-07-25T00:29:30.219Z,978.37
2022-07-25T00:30:30.149Z,978.37
2022-07-25T00:31:30.130Z,978.39
2022-07-25T00:32:30.001Z,978.35
2022-07-25T00:33:29.928Z,978.36
2022-07-25T00:34:29.856Z,978.36
2022-07-25T00:35:29.781Z,978.36
2022-07-25T00:36:29.705Z,978.36
2022-07-25T00:37:29.638Z,978.36
2022-07-25T00:38:29.562Z,978.33
2022-07-25T00:39:29.490Z,978.34
2022-07-25T00:40:29.413Z,978.29
2022-07-25T00:41:29.338Z,978.29
2022-07-25T00:42:29.267Z,978.29
2022-07-25T00:43:29.199Z,978.30
2022-07-25T00:44:29.122Z,978.25
2022-07-25T00:45:29.048Z,978.23
2022-07-25T00:46:29.033Z,978.20
2022-07-25T00:47:28.906Z,978.16
2022-07-25T00:48:28.895Z,978.17
2022-07-25T00:49:28.758Z,978.19
2022-07-25T00:50:28.679Z,978.14
2022-07-25T00:51:28.606Z,978.15
2022-07-25T00:52:35.722Z,978.14
2022-07-25T00:54:32.406Z,978.10
2022-07-25T00:55:32.323Z,978.06
2022-07-25T00:57:36.189Z,978.07
2022-07-25T00:58:36.087Z,978.03
2022-07-25T00:59:36.110Z,978.10
2022-07-25T01:00:35.938Z,978.04
2022-07-25T01:01:35.907Z,978.00
2022-07-25T01:02:35.849Z,978.00
2022-07-25T01:03:35.718Z,977.97
2022-07-25T01:04:35.646Z,977.96
2022-07-25T01:05:35.571Z,977.97
2022-07-25T01:06:35.495Z,977.98
2022-07-25T01:07:35.423Z,977.97
2022-07-25T01:08:35.351Z,978.01
2022-07-25T01:09:35.277Z,978.00
2022-07-25T01:10:35.233Z,978.02
2022-07-25T01:11:35.132Z,977.98
2022-07-25T01:12:35.057Z,978.01
2022-07-25T01:13:34.980Z,978.02
2022-07-25T01:14:34.908Z,978.00
2022-07-25T01:15:34.870Z,978.00
2022-07-25T01:16:34.766Z,978.01
2022-07-25T01:17:34.689Z,978.02
2022-07-25T01:18:34.619Z,977.99
2022-07-25T01:19:34.539Z,978.01
2022-07-25T01:20:34.473Z,978.03
2022-07-25T01:21:34.399Z,978.00
2022-07-25T01:22:34.315Z,978.00
2022-07-25T01:23:34.260Z,977.99
2022-07-25T01:24:34.174Z,977.97
2022-07-25T01:25:34.109Z,977.97
2022-07-25T01:26:34.030Z,977.97
2022-07-25T01:27:33.956Z,977.99
2022-07-25T01:28:33.878Z,977.96
2022-07-25T01:29:33.806Z,977.98
2022-07-25T01:30:33.737Z,977.92
2022-07-25T01:31:33.712Z,977.91
2022-07-25T01:32:33.588Z,977.94
2022-07-25T01:33:33.511Z,977.92
2022-07-25T01:34:33.439Z,977.91
2022-07-25T01:35:33.362Z,977.90
2022-07-25T01:36:33.295Z,977.90
2022-07-25T01:37:33.220Z,977.87
2022-07-25T01:38:33.145Z,977.90
2022-07-25T01:39:33.074Z,977.85
2022-07-25T01:40:33.002Z,977.84
2022-07-25T01:41:32.924Z,977.84
2022-07-25T01:42:32.851Z,977.86
2022-07-25T01:43:32.781Z,977.81
2022-07-25T01:44:32.706Z,977.85
2022-07-25T01:45:32.630Z,977.82
2022-07-25T01:46:32.657Z,977.84
2022-07-25T01:47:32.488Z,977.82
2022-07-25T01:48:32.423Z,977.82
2022-07-25T01:49:32.346Z,977.79
2022-07-25T01:50:32.267Z,977.82
2022-07-25T01:51:32.193Z,977.80
2022-07-25T01:52:32.119Z,977.81
2022-07-25T01:53:32.043Z,977.81
2022-07-25T01:54:31.970Z,977.82
2022-07-25T01:55:31.901Z,977.80
2022-07-25T01:56:32.085Z,977.81
2022-07-25T01:57:31.751Z,977.80
2022-07-25T01:58:31.675Z,977.78
2022-07-25T01:59:31.606Z,977.80
2022-07-25T02:00:31.535Z,977.82
2022-07-25T02:01:31.506Z,977.77
2022-07-25T02:02:31.381Z,977.79
2022-07-25T02:03:31.317Z,977.78
2022-07-25T02:04:31.305Z,977.77
2022-07-25T02:05:31.169Z,977.77
2022-07-25T02:06:31.085Z,977.76
2022-07-25T02:07:31.022Z,977.71
2022-07-25T02:08:30.939Z,977.71
2022-07-25T02:09:30.871Z,977.72
2022-07-25T02:10:30.793Z,977.71
2022-07-25T02:11:30.725Z,977.69
2022-07-25T02:12:30.648Z,977.68
2022-07-25T02:13:30.576Z,977.74
2022-07-25T02:14:30.505Z,977.70
2022-07-25T02:15:30.429Z,977.67
2022-07-25T02:16:30.397Z,977.68
2022-07-25T02:17:30.382Z,977.68
2022-07-25T02:18:30.209Z,977.65
2022-07-25T02:19:30.139Z,977.65
2022-07-25T02:20:30.057Z,977.63
2022-07-25T02:21:29.987Z,977.64
2022-07-25T02:22:29.913Z,977.64
2022-07-25T02:23:29.840Z,977.63
2022-07-25T02:24:29.773Z,977.61
2022-07-25T02:25:29.695Z,977.57
2022-07-25T02:26:29.625Z,977.55
2022-07-25T02:27:29.553Z,977.57
2022-07-25T02:28:29.475Z,977.60
2022-07-25T02:29:29.398Z,977.55
2022-07-25T02:30:29.369Z,977.57
2022-07-25T02:31:29.254Z,977.56
2022-07-25T02:32:29.180Z,977.54
2022-07-25T02:33:29.105Z,977.55
2022-07-25T02:34:29.028Z,977.50
2022-07-25T02:35:28.956Z,977.49
2022-07-25T02:36:28.881Z,977.47
2022-07-25T02:37:28.809Z,977.50
2022-07-25T02:38:28.733Z,977.47
2022-07-25T02:39:28.658Z,977.42
2022-07-25T02:40:28.592Z,977.43
2022-07-25T02:41:28.516Z,977.42
2022-07-25T02:42:28.442Z,977.41
2022-07-25T02:43:28.374Z,977.40
2022-07-25T02:44:28.294Z,977.37
2022-07-25T02:45:28.221Z,977.38
2022-07-25T02:46:28.229Z,977.34
2022-07-25T02:47:28.074Z,977.34
2022-07-25T02:48:28.080Z,977.32
2022-07-25T02:49:27.926Z,977.32
2022-07-25T02:50:27.856Z,977.31
2022-07-25T02:51:27.775Z,977.33
2022-07-25T02:52:27.705Z,977.35
2022-07-25T02:53:47.207Z,977.36
2022-07-25T02:54:27.558Z,977.39
2022-07-25T02:55:27.489Z,977.37
2022-07-25T02:56:29.726Z,977.38
2022-07-25T02:57:27.333Z,977.37
2022-07-25T02:58:27.266Z,977.37
2022-07-25T02:59:32.079Z,977.35
2022-07-25T03:00:27.112Z,977.35
2022-07-25T03:01:27.167Z,977.36
2022-07-25T03:02:26.962Z,977.39
2022-07-25T03:03:26.899Z,977.37
2022-07-25T03:04:26.917Z,977.37
2022-07-25T03:05:26.747Z,977.36
2022-07-25T03:06:26.671Z,977.38
2022-07-25T03:07:26.595Z,977.38
2022-07-25T03:08:26.527Z,977.38
2022-07-25T03:09:26.449Z,977.41
2022-07-25T03:10:26.376Z,977.39
2022-07-25T03:11:26.310Z,977.37
2022-07-25T03:12:26.228Z,977.39
2022-07-25T03:13:26.157Z,977.40
2022-07-25T03:14:26.090Z,977.43
2022-07-25T03:15:26.006Z,977.44
2022-07-25T03:16:25.996Z,977.43
2022-07-25T03:17:25.866Z,977.47
2022-07-25T03:18:25.785Z,977.43
2022-07-25T03:19:25.714Z,977.46
2022-07-25T03:20:25.637Z,977.42
2022-07-25T03:21:25.568Z,977.41
2022-07-25T03:22:25.490Z,977.43
2022-07-25T03:23:25.421Z,977.35
2022-07-25T03:24:25.343Z,977.38
2022-07-25T03:25:25.268Z,977.37
2022-07-25T03:26:25.202Z,977.36
2022-07-25T03:27:25.129Z,977.42
2022-07-25T03:28:25.054Z,977.38
2022-07-25T03:29:24.978Z,977.41
2022-07-25T03:30:24.901Z,977.42
2022-07-25T03:31:24.883Z,977.40
2022-07-25T03:32:24.756Z,977.38
2022-07-25T03:33:24.680Z,977.39
2022-07-25T03:34:24.605Z,977.36
2022-07-25T03:35:24.528Z,977.36
2022-07-25T03:36:24.458Z,977.35
2022-07-25T03:37:24.385Z,977.37
2022-07-25T03:38:24.314Z,977.38
2022-07-25T03:39:24.236Z,977.38
2022-07-25T03:40:24.167Z,977.39
2022-07-25T03:41:24.086Z,977.34
2022-07-25T03:42:26.739Z,977.38
2022-07-25T03:43:23.936Z,977.37
2022-07-25T03:44:23.870Z,977.40
2022-07-25T03:45:23.791Z,977.42
2022-07-25T03:46:23.752Z,977.38
2022-07-25T03:47:23.653Z,977.39
2022-07-25T03:48:23.634Z,977.45
2022-07-25T03:49:23.496Z,977.46
2022-07-25T03:50:23.424Z,977.47
2022-07-25T03:51:23.348Z,977.45
2022-07-25T03:52:23.281Z,977.47
2022-07-25T03:53:23.203Z,977.46
2022-07-25T03:54:23.125Z,977.45
2022-07-25T03:55:23.057Z,977.45
2022-07-25T03:56:22.978Z,977.48
2022-07-25T03:57:22.910Z,977.42
2022-07-25T03:58:22.831Z,977.46
2022-07-25T03:59:22.756Z,977.43
2022-07-25T04:00:22.687Z,977.45
2022-07-25T04:01:22.746Z,977.43
2022-07-25T04:02:22.613Z,977.40
2022-07-25T04:03:22.459Z,977.44
2022-07-25T04:04:22.383Z,977.45
2022-07-25T04:05:22.310Z,977.43
2022-07-25T04:06:22.238Z,977.41
2022-07-25T04:07:22.168Z,977.43
2022-07-25T04:08:22.095Z,977.43
2022-07-25T04:09:22.019Z,977.46
2022-07-25T04:10:21.937Z,977.46
2022-07-25T04:11:21.873Z,977.45
2022-07-25T04:12:21.797Z,977.42
2022-07-25T04:13:21.721Z,977.42
2022-07-25T04:14:21.646Z,977.36
2022-07-25T04:15:21.576Z,977.37
2022-07-25T04:16:22.496Z,977.33
2022-07-25T04:17:21.510Z,977.38
2022-07-25T04:18:22.320Z,977.36
2022-07-25T04:19:21.280Z,977.33
2022-07-25T04:20:21.201Z,977.36
2022-07-25T04:21:21.133Z,977.31
2022-07-25T04:22:21.053Z,977.33
2022-07-25T04:23:20.981Z,977.34
2022-07-25T04:24:20.906Z,977.33
2022-07-25T04:25:20.828Z,977.33
2022-07-25T04:26:20.759Z,977.31
2022-07-25T04:27:20.688Z,977.33
2022-07-25T04:28:20.611Z,977.33
2022-07-25T04:29:20.536Z,977.28
2022-07-25T04:30:23.930Z,977.29
2022-07-25T04:31:20.415Z,977.22
2022-07-25T04:32:23.559Z,977.25
2022-07-25T04:33:20.234Z,977.20
2022-07-25T04:34:20.163Z,977.18
2022-07-25T04:35:20.091Z,977.22
2022-07-25T04:36:20.017Z,977.25
2022-07-25T04:37:19.949Z,977.23
2022-07-25T04:38:19.870Z,977.22
2022-07-25T04:39:19.791Z,977.22
2022-07-25T04:40:19.719Z,977.21
2022-07-25T04:41:19.645Z,977.24
2022-07-25T04:42:19.571Z,977.21
2022-07-25T04:43:19.495Z,977.23
2022-07-25T04:44:19.420Z,977.24
2022-07-25T04:45:19.420Z,977.21
2022-07-25T04:46:19.362Z,977.23
2022-07-25T04:47:19.197Z,977.25
2022-07-25T04:48:19.129Z,977.25
2022-07-25T04:49:19.128Z,977.24
2022-07-25T04:50:24.493Z,977.20
2022-07-25T04:51:18.905Z,977.19
2022-07-25T04:52:18.826Z,977.17
2022-07-25T04:53:18.755Z,977.17
2022-07-25T04:54:18.683Z,977.18
2022-07-25T04:55:18.609Z,977.16
2022-07-25T04:56:18.536Z,977.15
2022-07-25T04:57:18.464Z,977.09
2022-07-25T04:58:18.390Z,977.12
2022-07-25T04:59:18.312Z,977.09
2022-07-25T05:00:18.237Z,977.09
2022-07-25T05:01:18.226Z,977.10
2022-07-25T05:02:18.133Z,977.04
2022-07-25T05:03:18.016Z,977.11
2022-07-25T05:04:17.947Z,977.09
2022-07-25T05:05:21.718Z,977.11
2022-07-25T05:06:17.794Z,977.10
2022-07-25T05:07:17.715Z,977.10
2022-07-25T05:08:17.644Z,977.06
2022-07-25T05:09:17.572Z,977.05
2022-07-25T05:10:17.496Z,977.03
2022-07-25T05:11:17.420Z,977.01
2022-07-25T05:12:17.350Z,976.97
2022-07-25T05:13:17.273Z,976.96
2022-07-25T05:14:17.210Z,976.96
2022-07-25T05:15:17.131Z,976.96
2022-07-25T05:16:17.156Z,976.93
2022-07-25T05:17:16.979Z,976.96
2022-07-25T05:18:16.916Z,976.93
2022-07-25T05:19:16.841Z,976.92
2022-07-25T05:20:16.761Z,976.95
2022-07-25T05:21:16.686Z,976.94
2022-07-25T05:22:16.614Z,976.96
2022-07-25T05:23:16.546Z,976.94
2022-07-25T05:24:16.468Z,976.95
2022-07-25T05:25:16.397Z,977.00
2022-07-25T05:26:16.314Z,977.01
2022-07-25T05:27:16.240Z,977.01
2022-07-25T05:28:16.183Z,977.03
2022-07-25T05:29:16.100Z,977.06
2022-07-25T05:30:16.018Z,977.07
2022-07-25T05:31:15.991Z,977.11
2022-07-25T05:32:15.881Z,977.07
2022-07-25T05:33:15.799Z,977.08
2022-07-25T05:34:15.724Z,977.06
2022-07-25T05:35:15.663Z,977.07
2022-07-25T05:36:15.582Z,977.05
2022-07-25T05:37:15.511Z,977.06
2022-07-25T05:38:15.431Z,977.06
2022-07-25T05:39:15.363Z,977.07
2022-07-25T05:40:15.281Z,977.02
2022-07-25T05:41:15.211Z,977.00
2022-07-25T05:42:15.252Z,976.99
2022-07-25T05:43:15.070Z,976.94
2022-07-25T05:44:14.987Z,976.90
2022-07-25T05:45:14.917Z,976.89
2022-07-25T05:46:14.920Z,976.86
2022-07-25T05:47:14.769Z,976.86
2022-07-25T05:48:14.694Z,976.84
2022-07-25T05:49:14.678Z,976.88
2022-07-25T05:50:14.548Z,976.86
2022-07-25T05:51:14.470Z,976.90
2022-07-25T05:52:14.397Z,976.87
2022-07-25T05:53:14.327Z,976.88
2022-07-25T05:54:14.250Z,976.86
2022-07-25T05:55:14.181Z,976.87
2022-07-25T05:56:14.106Z,976.82
2022-07-25T05:57:14.040Z,976.81
2022-07-25T05:58:13.959Z,976.79
2022-07-25T05:59:13.882Z,976.76
2022-07-25T06:00:13.813Z,976.79
2022-07-25T06:01:13.740Z,976.81
2022-07-25T06:02:13.751Z,976.81
2022-07-25T06:03:13.668Z,976.83
2022-07-25T06:04:13.519Z,976.81
2022-07-25T06:05:13.444Z,976.81
2022-07-25T06:06:13.366Z,976.83
2022-07-25T06:07:16.778Z,976.84
2022-07-25T06:08:13.241Z,976.84
2022-07-25T06:09:13.153Z,976.80
2022-07-25T06:10:13.074Z,976.83
2022-07-25T06:11:13.006Z,976.84
2022-07-25T06:12:12.931Z,976.82
2022-07-25T06:13:12.857Z,976.83
2022-07-25T06:14:12.783Z,976.81
2022-07-25T06:15:22.536Z,976.82
2022-07-25T06:16:12.701Z,976.83
2022-07-25T06:17:12.567Z,976.82
2022-07-25T06:18:12.490Z,976.80
2022-07-25T06:19:12.419Z,976.79
2022-07-25T06:20:12.340Z,976.84
2022-07-25T06:21:12.274Z,976.81
2022-07-25T06:22:12.205Z,976.80
2022-07-25T06:23:12.128Z,976.81
2022-07-25T06:24:12.053Z,976.74
2022-07-25T06:25:11.987Z,976.73
2022-07-25T06:26:11.906Z,976.73
2022-07-25T06:27:12.003Z,976.73
2022-07-25T06:28:11.757Z,976.74
2022-07-25T06:29:11.691Z,976.67
2022-07-25T06:30:19.849Z,976.69
2022-07-25T06:31:11.597Z,976.66
2022-07-25T06:32:11.467Z,976.60
2022-07-25T06:33:11.393Z,976.59
2022-07-25T06:34:11.487Z,976.52
2022-07-25T06:35:11.252Z,976.48
2022-07-25T06:36:11.182Z,976.46
2022-07-25T06:37:11.102Z,976.44
2022-07-25T06:38:11.025Z,976.45
2022-07-25T06:39:10.957Z,976.45
2022-07-25T06:40:10.884Z,976.38
2022-07-25T06:41:10.805Z,976.38
2022-07-25T06:42:10.734Z,976.43
2022-07-25T06:43:10.675Z,976.44
2022-07-25T06:44:10.594Z,976.42
2022-07-25T06:45:10.526Z,976.46
2022-07-25T06:46:10.499Z,976.43
2022-07-25T06:47:10.486Z,976.40
2022-07-25T06:48:10.297Z,976.39
2022-07-25T06:49:10.294Z,976.40
2022-07-25T06:50:11.226Z,976.38
2022-07-25T06:51:10.079Z,976.40
2022-07-25T06:52:10.003Z,976.47
2022-07-25T06:53:09.941Z,976.42
2022-07-25T06:54:10.161Z,976.45
2022-07-25T06:55:09.789Z,976.38
2022-07-25T06:56:12.187Z,976.40
2022-07-25T06:57:09.651Z,976.38
2022-07-25T06:58:09.573Z,976.39
2022-07-25T06:59:09.499Z,976.35
2022-07-25T07:00:09.429Z,976.40
2022-07-25T07:01:09.481Z,976.36
2022-07-25T07:02:09.283Z,976.35
2022-07-25T07:03:09.262Z,976.36
2022-07-25T07:04:09.639Z,976.33
2022-07-25T07:05:09.069Z,976.37
2022-07-25T07:06:08.987Z,976.35
2022-07-25T07:07:08.916Z,976.35
2022-07-25T07:08:08.844Z,976.31
2022-07-25T07:09:08.775Z,976.34
2022-07-25T07:10:08.697Z,976.33
2022-07-25T07:11:08.621Z,976.34
2022-07-25T07:12:08.553Z,976.34
2022-07-25T07:13:08.487Z,976.35
2022-07-25T07:14:08.751Z,976.36
2022-07-25T07:15:08.333Z,976.30
2022-07-25T07:16:08.311Z,976.29
2022-07-25T07:17:08.215Z,976.31
2022-07-25T07:18:08.114Z,976.28
2022-07-25T07:19:08.338Z,976.28
2022-07-25T07:20:07.977Z,976.26
2022-07-25T07:21:07.905Z,976.26
2022-07-25T07:22:07.826Z,976.24
2022-07-25T07:23:07.757Z,976.23
2022-07-25T07:24:23.343Z,976.19
2022-07-25T07:25:07.605Z,976.23
2022-07-25T07:26:07.540Z,976.21
2022-07-25T07:27:07.462Z,976.17
2022-07-25T07:28:07.390Z,976.17
2022-07-25T07:29:07.533Z,976.18
2022-07-25T07:30:07.247Z,976.17
2022-07-25T07:31:16.134Z,976.14
2022-07-25T07:32:07.217Z,976.16
2022-07-25T07:33:07.029Z,976.16
2022-07-25T07:34:06.957Z,976.22
2022-07-25T07:35:06.886Z,976.18
2022-07-25T07:36:06.815Z,976.21
2022-07-25T07:37:06.735Z,976.17
2022-07-25T07:38:06.665Z,976.18
2022-07-25T07:39:07.042Z,976.17
2022-07-25T07:40:06.519Z,976.18
2022-07-25T07:41:06.446Z,976.17
2022-07-25T07:42:06.375Z,976.13
2022-07-25T07:43:06.306Z,976.15
2022-07-25T07:44:06.231Z,976.12
2022-07-25T07:45:06.160Z,976.05
2022-07-25T07:46:06.153Z,976.10
2022-07-25T07:47:06.113Z,976.07
2022-07-25T07:48:05.943Z,976.10
2022-07-25T07:49:06.037Z,976.10
2022-07-25T07:50:05.806Z,976.07
2022-07-25T07:51:05.726Z,976.10
2022-07-25T07:52:05.662Z,976.13
2022-07-25T07:53:05.579Z,976.15
2022-07-25T07:54:05.510Z,976.13
2022-07-25T07:55:05.434Z,976.13
2022-07-25T07:56:05.379Z,976.14
2022-07-25T07:57:05.294Z,976.14
2022-07-25T07:58:05.220Z,976.15
2022-07-25T07:59:05.593Z,976.13
2022-07-25T08:00:05.076Z,976.14
2022-07-25T08:01:05.003Z,976.13
2022-07-25T08:02:05.047Z,976.15
2022-07-25T08:03:04.910Z,976.13
2022-07-25T08:04:04.789Z,976.13
2022-07-25T08:05:04.723Z,976.14
2022-07-25T08:06:04.643Z,976.11
2022-07-25T08:07:04.573Z,976.14
2022-07-25T08:08:04.496Z,976.12
2022-07-25T08:09:04.722Z,976.14
2022-07-25T08:10:04.358Z,976.14
2022-07-25T08:11:04.283Z,976.10
2022-07-25T08:12:04.222Z,976.14
2022-07-25T08:13:04.140Z,976.09
2022-07-25T08:14:04.561Z,976.13
2022-07-25T08:15:03.997Z,976.12
2022-07-25T08:16:04.109Z,976.09
2022-07-25T08:17:03.852Z,976.11
2022-07-25T08:18:03.777Z,976.11
2022-07-25T08:19:03.713Z,976.11
2022-07-25T08:20:20.944Z,976.09
2022-07-25T08:21:03.562Z,976.11
2022-07-25T08:22:03.494Z,976.03
2022-07-25T08:23:03.423Z,976.03
2022-07-25T08:24:03.614Z,976.02
2022-07-25T08:25:03.271Z,976.01
2022-07-25T08:26:03.202Z,976.05
2022-07-25T08:27:03.136Z,976.03
2022-07-25T08:28:03.060Z,975.98
2022-07-25T08:29:18.126Z,975.99
2022-07-25T08:30:02.921Z,975.98
2022-07-25T08:31:02.918Z,975.98
2022-07-25T08:32:02.821Z,975.94
2022-07-25T08:33:02.704Z,975.99
2022-07-25T08:34:02.641Z,976.00
2022-07-25T08:35:02.558Z,976.01
2022-07-25T08:36:02.487Z,975.97
2022-07-25T08:37:02.419Z,975.99
2022-07-25T08:38:02.348Z,976.00
2022-07-25T08:39:02.270Z,975.96
2022-07-25T08:40:02.199Z,975.98
2022-07-25T08:41:02.129Z,975.93
2022-07-25T08:42:02.058Z,975.94
2022-07-25T08:43:01.985Z,975.92
2022-07-25T08:44:01.911Z,975.89
2022-07-25T08:45:01.844Z,975.87
2022-07-25T08:46:01.840Z,975.86
2022-07-25T08:47:01.736Z,975.90
2022-07-25T08:48:01.628Z,975.89
2022-07-25T08:49:01.619Z,975.83
2022-07-25T08:50:04.469Z,975.83
2022-07-25T08:51:01.414Z,975.80
2022-07-25T08:52:01.353Z,975.81
2022-07-25T08:53:30.238Z,975.81
2022-07-25T08:54:01.201Z,975.76
2022-07-25T08:55:01.127Z,975.76
2022-07-25T08:56:01.888Z,975.74
2022-07-25T08:57:00.987Z,975.69
2022-07-25T08:58:00.917Z,975.69
2022-07-25T08:59:00.841Z,975.65
2022-07-25T09:00:00.772Z,975.64
2022-07-25T09:01:00.702Z,975.62
2022-07-25T09:02:00.673Z,975.63
2022-07-25T09:03:00.650Z,975.61
2022-07-25T09:04:00.483Z,975.59
2022-07-25T09:05:00.419Z,975.62
2022-07-25T09:06:00.345Z,975.62
2022-07-25T09:07:02.074Z,975.69
2022-07-25T09:08:00.196Z,975.61
2022-07-25T09:09:00.127Z,975.64
2022-07-25T09:10:00.068Z,975.62
2022-07-25T09:10:59.994Z,975.62
2022-07-25T09:11:59.918Z,975.55
2022-07-25T09:12:59.847Z,975.51
2022-07-25T09:13:59.787Z,975.53
2022-07-25T09:14:59.703Z,975.54
2022-07-25T09:15:59.711Z,975.56
2022-07-25T09:16:59.563Z,975.54
2022-07-25T09:17:59.490Z,975.48
2022-07-25T09:18:59.421Z,975.47
2022-07-25T09:19:59.365Z,975.45
2022-07-25T09:20:59.274Z,975.45
2022-07-25T09:21:59.603Z,975.47
2022-07-25T09:22:59.139Z,975.42
2022-07-25T09:23:59.064Z,975.45
2022-07-25T09:24:58.996Z,975.46
2022-07-25T09:25:58.918Z,975.43
2022-07-25T09:26:58.846Z,975.35
2022-07-25T09:27:58.785Z,975.34
2022-07-25T09:28:58.708Z,975.38
2022-07-25T09:29:58.639Z,975.37
2022-07-25T09:30:58.604Z,975.38
2022-07-25T09:31:58.501Z,975.38
2022-07-25T09:32:58.430Z,975.42
2022-07-25T09:33:58.364Z,975.42
2022-07-25T09:34:58.283Z,975.35
2022-07-25T09:35:58.213Z,975.38
2022-07-25T09:36:58.146Z,975.39
2022-07-25T09:37:58.068Z,975.33
2022-07-25T09:38:58.002Z,975.34
2022-07-25T09:39:57.934Z,975.26
2022-07-25T09:40:57.859Z,975.30
2022-07-25T09:41:57.787Z,975.27
2022-07-25T09:42:57.718Z,975.24
2022-07-25T09:43:57.644Z,975.24
2022-07-25T09:44:57.586Z,975.20
2022-07-25T09:45:57.551Z,975.19
2022-07-25T09:46:57.432Z,975.17
2022-07-25T09:47:57.365Z,975.19
2022-07-25T09:48:57.339Z,975.19
2022-07-25T09:49:57.230Z,975.22
2022-07-25T09:50:57.152Z,975.20
2022-07-25T09:51:57.081Z,975.17
2022-07-25T09:52:57.027Z,975.16
2022-07-25T09:53:56.948Z,975.16
2022-07-25T09:54:56.870Z,975.08
2022-07-25T09:55:56.801Z,975.14
2022-07-25T09:56:56.730Z,975.10
2022-07-25T09:57:56.660Z,975.10
2022-07-25T09:58:56.586Z,975.11
2022-07-25T09:59:56.514Z,975.05
2022-07-25T10:00:56.446Z,975.05
2022-07-25T10:01:56.415Z,975.05
2022-07-25T10:02:56.367Z,975.01
2022-07-25T10:03:56.233Z,975.05
2022-07-25T10:04:56.167Z,975.10
2022-07-25T10:05:56.098Z,975.05
2022-07-25T10:06:56.026Z,975.05
2022-07-25T10:07:55.954Z,975.04
2022-07-25T10:08:55.885Z,975.01
2022-07-25T10:09:55.818Z,975.01
2022-07-25T10:10:55.744Z,975.03
2022-07-25T10:11:55.677Z,974.94
2022-07-25T10:12:55.611Z,974.90
2022-07-25T10:13:55.534Z,974.90
2022-07-25T10:14:55.461Z,974.88
2022-07-25T10:15:55.387Z,974.90
2022-07-25T10:16:55.358Z,974.87
2022-07-25T10:17:55.251Z,974.84
2022-07-25T10:18:55.180Z,974.89
2022-07-25T10:19:58.668Z,974.91
2022-07-25T10:20:55.040Z,974.86
2022-07-25T10:21:54.970Z,974.82
2022-07-25T10:22:56.762Z,974.83
2022-07-25T10:23:54.830Z,974.81
2022-07-25T10:24:54.762Z,974.80
2022-07-25T10:25:54.693Z,974.77
2022-07-25T10:26:54.622Z,974.77
2022-07-25T10:27:54.551Z,974.81
2022-07-25T10:28:54.485Z,974.79
2022-07-25T10:29:54.410Z,974.79
2022-07-25T10:30:54.404Z,974.79
2022-07-25T10:31:54.276Z,974.76
2022-07-25T10:32:54.200Z,974.75
2022-07-25T10:33:54.130Z,974.72
2022-07-25T10:34:54.064Z,974.75
2022-07-25T10:35:53.994Z,974.70
2022-07-25T10:36:53.928Z,974.69
2022-07-25T10:37:53.854Z,974.67
2022-07-25T10:38:53.784Z,974.63
2022-07-25T10:39:53.709Z,974.60
2022-07-25T10:40:53.644Z,974.64
2022-07-25T10:41:53.580Z,974.61
2022-07-25T10:42:53.507Z,974.54
2022-07-25T10:43:53.429Z,974.60
2022-07-25T10:44:53.364Z,974.55
2022-07-25T10:45:53.365Z,974.51
2022-07-25T10:46:53.225Z,974.50
2022-07-25T10:47:53.154Z,974.53
2022-07-25T10:48:53.142Z,974.51
2022-07-25T10:50:13.975Z,974.47
2022-07-25T10:50:55.983Z,974.49
2022-07-25T10:51:52.879Z,974.45
2022-07-25T10:52:52.806Z,974.41
2022-07-25T10:53:52.737Z,974.39
2022-07-25T10:54:52.670Z,974.43
2022-07-25T10:56:05.401Z,974.39
2022-07-25T10:56:52.528Z,974.40
2022-07-25T10:58:16.118Z,974.43
2022-07-25T10:58:52.387Z,974.40
2022-07-25T10:59:52.321Z,974.43
2022-07-25T11:00:52.274Z,974.42
2022-07-25T11:01:52.196Z,974.41
2022-07-25T11:02:52.169Z,974.38
2022-07-25T11:03:52.047Z,974.39
2022-07-25T11:04:51.975Z,974.31
2022-07-25T11:05:51.903Z,974.32
2022-07-25T11:06:51.837Z,974.31
2022-07-25T11:08:18.978Z,974.33
2022-07-25T11:08:51.699Z,974.34
2022-07-25T11:09:51.624Z,974.29
2022-07-25T11:10:51.560Z,974.32
2022-07-25T11:11:51.514Z,974.29
2022-07-25T11:12:51.422Z,974.24
2022-07-25T11:13:51.352Z,974.25
2022-07-25T11:14:51.284Z,974.24
2022-07-25T11:15:51.216Z,974.22
2022-07-25T11:16:51.221Z,974.20
2022-07-25T11:17:51.077Z,974.18
2022-07-25T11:18:51.006Z,974.14
2022-07-25T11:19:50.935Z,974.16
2022-07-25T11:20:50.874Z,974.13
2022-07-25T11:21:50.801Z,974.08
2022-07-25T11:22:50.726Z,974.10
2022-07-25T11:23:50.659Z,974.08
2022-07-25T11:24:50.597Z,974.06
2022-07-25T11:25:50.527Z,974.04
2022-07-25T11:26:50.457Z,974.05
2022-07-25T11:27:50.418Z,974.04
2022-07-25T11:28:50.326Z,973.98
2022-07-25T11:29:50.250Z,973.98
2022-07-25T11:30:50.177Z,973.96
2022-07-25T11:31:50.171Z,974.00
2022-07-25T11:32:50.045Z,974.01
2022-07-25T11:33:49.968Z,974.01
2022-07-25T11:34:50.478Z,973.98
2022-07-25T11:35:49.837Z,973.91
2022-07-25T11:36:49.769Z,973.91
2022-07-25T11:37:49.697Z,973.90
2022-07-25T11:38:49.635Z,973.92
2022-07-25T11:39:49.562Z,973.89
2022-07-25T11:40:49.497Z,973.92
2022-07-25T11:41:49.430Z,973.91
2022-07-25T11:42:49.371Z,973.91
2022-07-25T11:43:49.285Z,973.88
2022-07-25T11:44:49.219Z,973.87
2022-07-25T11:45:49.189Z,973.86
2022-07-25T11:46:49.081Z,973.82
2022-07-25T11:47:49.013Z,973.79
2022-07-25T11:48:48.993Z,973.80
2022-07-25T11:49:48.876Z,973.80
2022-07-25T11:50:48.809Z,973.81
2022-07-25T11:51:48.747Z,973.83
2022-07-25T11:52:48.677Z,973.83
2022-07-25T11:53:48.607Z,973.74
2022-07-25T11:54:48.541Z,973.72
2022-07-25T11:55:48.471Z,973.71
2022-07-25T11:56:48.401Z,973.70
2022-07-25T11:57:48.329Z,973.70
2022-07-25T11:58:48.262Z,973.68
2022-07-25T11:59:48.195Z,973.66
2022-07-25T12:00:48.145Z,973.63
2022-07-25T12:01:48.117Z,973.62
2022-07-25T12:02:48.103Z,973.59
2022-07-25T12:03:47.943Z,973.60
2022-07-25T12:04:47.855Z,973.56
2022-07-25T12:05:47.812Z,973.56
2022-07-25T12:06:47.730Z,973.63
2022-07-25T12:07:47.654Z,973.60
2022-07-25T12:08:47.581Z,973.52
2022-07-25T12:09:47.517Z,973.53
2022-07-25T12:10:47.447Z,973.51
2022-07-25T12:11:47.390Z,973.45
2022-07-25T12:12:47.311Z,973.44
2022-07-25T12:13:47.244Z,973.40
2022-07-25T12:14:47.171Z,973.36
2022-07-25T12:15:47.110Z,973.32
2022-07-25T12:16:47.114Z,973.34
2022-07-25T12:17:46.976Z,973.34
2022-07-25T12:18:46.904Z,973.35
2022-07-25T12:19:46.837Z,973.31
2022-07-25T12:20:46.780Z,973.31
2022-07-25T12:21:46.699Z,973.30
2022-07-25T12:22:46.630Z,973.31
2022-07-25T12:23:46.566Z,973.29
2022-07-25T12:24:46.499Z,973.25
2022-07-25T12:25:46.435Z,973.25
2022-07-25T12:26:46.360Z,973.25
2022-07-25T12:27:46.315Z,973.22
2022-07-25T12:28:46.228Z,973.23
2022-07-25T12:29:46.159Z,973.25